sensor_id;sensor_type;location;lat;lon;timestamp;P1;durP1;ratioP1;P2;durP2;ratioP2
73729;SDS011;62036;48.128;16.458;2022-11-20T00:01:53;22.52;;;9.40;;
73729;SDS011;62036;48.128;16.458;2022-11-20T00:06:45;19.30;;;8.82;;
73729;SDS011;62036;48.128;16.458;2022-11-20T00:09:12;21.90;;;9.43;;
73729;SDS011;62036;48.128;16.458;2022-11-20T00:11:38;18.75;;;8.88;;
73729;SDS011;62036;48.128;16.458;2022-11-20T00:16:31;19.73;;;8.13;;
73729;SDS011;62036;48.128;16.458;2022-11-20T00:18:57;20.08;;;9.02;;
73729;SDS011;62036;48.128;16.458;2022-11-20T00:21:26;22.25;;;9.73;;
73729;SDS011;62036;48.128;16.458;2022-11-20T00:23:53;19.05;;;8.80;;
73729;SDS011;62036;48.128;16.458;2022-11-20T00:26:20;19.73;;;8.73;;
73729;SDS011;62036;48.128;16.458;2022-11-20T00:28:53;21.70;;;9.32;;
73729;SDS011;62036;48.128;16.458;2022-11-20T00:31:19;18.20;;;8.13;;
73729;SDS011;62036;48.128;16.458;2022-11-20T00:33:46;22.10;;;9.25;;
73729;SDS011;62036;48.128;16.458;2022-11-20T00:36:16;19.40;;;9.35;;
73729;SDS011;62036;48.128;16.458;2022-11-20T00:38:42;21.05;;;8.70;;
73729;SDS011;62036;48.128;16.458;2022-11-20T00:41:09;22.77;;;9.40;;
73729;SDS011;62036;48.128;16.458;2022-11-20T00:43:36;19.02;;;8.20;;
73729;SDS011;62036;48.128;16.458;2022-11-20T00:48:28;20.85;;;9.60;;
73729;SDS011;62036;48.128;16.458;2022-11-20T00:50:54;22.90;;;9.35;;
73729;SDS011;62036;48.128;16.458;2022-11-20T00:53:20;19.50;;;9.00;;
73729;SDS011;62036;48.128;16.458;2022-11-20T00:55:54;20.83;;;9.55;;
73729;SDS011;62036;48.128;16.458;2022-11-20T00:58:20;20.77;;;9.27;;
73729;SDS011;62036;48.128;16.458;2022-11-20T01:00:46;21.95;;;9.18;;
73729;SDS011;62036;48.128;16.458;2022-11-20T01:03:14;21.42;;;8.88;;
73729;SDS011;62036;48.128;16.458;2022-11-20T01:05:41;20.20;;;8.90;;
73729;SDS011;62036;48.128;16.458;2022-11-20T01:10:33;19.15;;;8.05;;
73729;SDS011;62036;48.128;16.458;2022-11-20T01:15:43;15.95;;;8.00;;
73729;SDS011;62036;48.128;16.458;2022-11-20T01:20:35;20.73;;;8.30;;
73729;SDS011;62036;48.128;16.458;2022-11-20T01:23:02;21.55;;;8.57;;
73729;SDS011;62036;48.128;16.458;2022-11-20T01:25:28;19.30;;;8.85;;
73729;SDS011;62036;48.128;16.458;2022-11-20T01:27:54;21.50;;;9.45;;
73729;SDS011;62036;48.128;16.458;2022-11-20T01:32:46;19.55;;;8.27;;
73729;SDS011;62036;48.128;16.458;2022-11-20T01:37:38;19.20;;;7.88;;
73729;SDS011;62036;48.128;16.458;2022-11-20T01:42:30;19.45;;;8.75;;
73729;SDS011;62036;48.128;16.458;2022-11-20T01:48:00;20.48;;;8.75;;
73729;SDS011;62036;48.128;16.458;2022-11-20T01:50:26;23.52;;;9.15;;
73729;SDS011;62036;48.128;16.458;2022-11-20T01:53:02;19.88;;;8.48;;
73729;SDS011;62036;48.128;16.458;2022-11-20T01:55:31;19.85;;;8.38;;
73729;SDS011;62036;48.128;16.458;2022-11-20T01:57:58;21.10;;;9.05;;
73729;SDS011;62036;48.128;16.458;2022-11-20T02:00:24;20.52;;;9.30;;
73729;SDS011;62036;48.128;16.458;2022-11-20T02:02:51;21.77;;;9.55;;
73729;SDS011;62036;48.128;16.458;2022-11-20T02:08:00;23.42;;;9.90;;
73729;SDS011;62036;48.128;16.458;2022-11-20T02:10:28;23.67;;;9.82;;
73729;SDS011;62036;48.128;16.458;2022-11-20T02:12:54;24.35;;;9.90;;
73729;SDS011;62036;48.128;16.458;2022-11-20T02:15:39;21.40;;;9.55;;
73729;SDS011;62036;48.128;16.458;2022-11-20T02:18:06;24.20;;;9.95;;
73729;SDS011;62036;48.128;16.458;2022-11-20T02:20:32;19.77;;;9.13;;
73729;SDS011;62036;48.128;16.458;2022-11-20T02:23:08;21.60;;;9.43;;
73729;SDS011;62036;48.128;16.458;2022-11-20T02:25:37;23.98;;;9.85;;
73729;SDS011;62036;48.128;16.458;2022-11-20T02:28:03;22.73;;;9.32;;
73729;SDS011;62036;48.128;16.458;2022-11-20T02:30:30;24.33;;;9.95;;
73729;SDS011;62036;48.128;16.458;2022-11-20T02:32:57;22.05;;;9.90;;
73729;SDS011;62036;48.128;16.458;2022-11-20T02:37:53;26.88;;;10.00;;
73729;SDS011;62036;48.128;16.458;2022-11-20T02:40:20;20.60;;;8.95;;
73729;SDS011;62036;48.128;16.458;2022-11-20T02:42:47;21.50;;;9.02;;
73729;SDS011;62036;48.128;16.458;2022-11-20T02:45:13;22.35;;;9.52;;
73729;SDS011;62036;48.128;16.458;2022-11-20T02:47:39;23.85;;;9.75;;
73729;SDS011;62036;48.128;16.458;2022-11-20T02:50:05;25.17;;;9.05;;
73729;SDS011;62036;48.128;16.458;2022-11-20T02:52:31;23.95;;;9.95;;
73729;SDS011;62036;48.128;16.458;2022-11-20T02:54:57;18.83;;;9.02;;
73729;SDS011;62036;48.128;16.458;2022-11-20T02:57:23;20.73;;;9.13;;
73729;SDS011;62036;48.128;16.458;2022-11-20T02:59:49;22.27;;;9.63;;
73729;SDS011;62036;48.128;16.458;2022-11-20T03:02:15;25.35;;;10.25;;
73729;SDS011;62036;48.128;16.458;2022-11-20T03:04:41;23.65;;;10.00;;
73729;SDS011;62036;48.128;16.458;2022-11-20T03:07:08;21.17;;;10.25;;
73729;SDS011;62036;48.128;16.458;2022-11-20T03:09:34;19.15;;;9.27;;
73729;SDS011;62036;48.128;16.458;2022-11-20T03:12:00;23.95;;;9.80;;
73729;SDS011;62036;48.128;16.458;2022-11-20T03:14:26;21.25;;;9.98;;
73729;SDS011;62036;48.128;16.458;2022-11-20T03:16:53;23.70;;;9.90;;
73729;SDS011;62036;48.128;16.458;2022-11-20T03:19:19;23.52;;;9.55;;
73729;SDS011;62036;48.128;16.458;2022-11-20T03:21:45;23.48;;;10.30;;
73729;SDS011;62036;48.128;16.458;2022-11-20T03:24:11;21.95;;;9.52;;
73729;SDS011;62036;48.128;16.458;2022-11-20T03:26:37;24.38;;;10.43;;
73729;SDS011;62036;48.128;16.458;2022-11-20T03:29:04;23.92;;;9.82;;
73729;SDS011;62036;48.128;16.458;2022-11-20T03:31:34;25.05;;;10.75;;
73729;SDS011;62036;48.128;16.458;2022-11-20T03:34:01;22.85;;;9.93;;
73729;SDS011;62036;48.128;16.458;2022-11-20T03:36:27;26.67;;;11.27;;
73729;SDS011;62036;48.128;16.458;2022-11-20T03:38:54;21.60;;;9.77;;
73729;SDS011;62036;48.128;16.458;2022-11-20T03:41:21;25.15;;;9.73;;
73729;SDS011;62036;48.128;16.458;2022-11-20T03:43:52;26.17;;;9.98;;
73729;SDS011;62036;48.128;16.458;2022-11-20T03:46:18;21.33;;;9.82;;
73729;SDS011;62036;48.128;16.458;2022-11-20T03:48:44;24.88;;;9.80;;
73729;SDS011;62036;48.128;16.458;2022-11-20T03:51:18;19.20;;;8.95;;
73729;SDS011;62036;48.128;16.458;2022-11-20T03:53:45;24.50;;;9.52;;
73729;SDS011;62036;48.128;16.458;2022-11-20T03:56:12;25.80;;;10.80;;
73729;SDS011;62036;48.128;16.458;2022-11-20T03:58:38;20.42;;;10.07;;
73729;SDS011;62036;48.128;16.458;2022-11-20T04:01:08;23.02;;;9.65;;
73729;SDS011;62036;48.128;16.458;2022-11-20T04:03:35;23.05;;;10.35;;
73729;SDS011;62036;48.128;16.458;2022-11-20T04:06:02;21.85;;;9.43;;
73729;SDS011;62036;48.128;16.458;2022-11-20T04:08:29;24.02;;;9.73;;
73729;SDS011;62036;48.128;16.458;2022-11-20T04:10:55;24.17;;;9.65;;
73729;SDS011;62036;48.128;16.458;2022-11-20T04:13:21;22.42;;;10.30;;
73729;SDS011;62036;48.128;16.458;2022-11-20T04:18:13;21.80;;;10.05;;
73729;SDS011;62036;48.128;16.458;2022-11-20T04:23:06;20.92;;;9.68;;
73729;SDS011;62036;48.128;16.458;2022-11-20T04:25:32;21.23;;;10.30;;
73729;SDS011;62036;48.128;16.458;2022-11-20T04:27:58;24.27;;;10.55;;
73729;SDS011;62036;48.128;16.458;2022-11-20T04:30:24;20.58;;;9.30;;
73729;SDS011;62036;48.128;16.458;2022-11-20T04:32:50;27.63;;;10.80;;
73729;SDS011;62036;48.128;16.458;2022-11-20T04:35:16;27.00;;;11.05;;
73729;SDS011;62036;48.128;16.458;2022-11-20T04:40:08;23.98;;;9.80;;
73729;SDS011;62036;48.128;16.458;2022-11-20T04:42:34;22.08;;;9.65;;
73729;SDS011;62036;48.128;16.458;2022-11-20T04:45:00;19.83;;;9.50;;
73729;SDS011;62036;48.128;16.458;2022-11-20T04:47:26;29.55;;;10.80;;
73729;SDS011;62036;48.128;16.458;2022-11-20T04:52:18;21.63;;;9.10;;
73729;SDS011;62036;48.128;16.458;2022-11-20T04:54:44;26.70;;;10.40;;
73729;SDS011;62036;48.128;16.458;2022-11-20T04:59:36;25.08;;;10.50;;
73729;SDS011;62036;48.128;16.458;2022-11-20T05:02:02;27.05;;;10.50;;
73729;SDS011;62036;48.128;16.458;2022-11-20T05:04:28;24.77;;;10.18;;
73729;SDS011;62036;48.128;16.458;2022-11-20T05:09:19;23.05;;;9.70;;
73729;SDS011;62036;48.128;16.458;2022-11-20T05:14:11;21.38;;;8.38;;
73729;SDS011;62036;48.128;16.458;2022-11-20T05:16:37;25.38;;;10.15;;
73729;SDS011;62036;48.128;16.458;2022-11-20T05:19:03;27.45;;;10.32;;
73729;SDS011;62036;48.128;16.458;2022-11-20T05:23:55;20.08;;;8.63;;
73729;SDS011;62036;48.128;16.458;2022-11-20T05:26:21;20.45;;;9.18;;
73729;SDS011;62036;48.128;16.458;2022-11-20T05:28:47;21.83;;;9.48;;
73729;SDS011;62036;48.128;16.458;2022-11-20T05:31:15;20.27;;;9.85;;
73729;SDS011;62036;48.128;16.458;2022-11-20T05:33:41;20.63;;;9.00;;
73729;SDS011;62036;48.128;16.458;2022-11-20T05:36:08;26.23;;;11.18;;
73729;SDS011;62036;48.128;16.458;2022-11-20T05:38:34;19.98;;;8.98;;
73729;SDS011;62036;48.128;16.458;2022-11-20T05:41:10;23.08;;;9.77;;
73729;SDS011;62036;48.128;16.458;2022-11-20T05:43:38;25.23;;;10.32;;
73729;SDS011;62036;48.128;16.458;2022-11-20T05:46:05;23.58;;;10.38;;
73729;SDS011;62036;48.128;16.458;2022-11-20T05:48:31;24.45;;;9.48;;
73729;SDS011;62036;48.128;16.458;2022-11-20T05:50:58;24.00;;;9.70;;
73729;SDS011;62036;48.128;16.458;2022-11-20T05:53:24;25.48;;;9.80;;
73729;SDS011;62036;48.128;16.458;2022-11-20T05:56:00;27.92;;;11.23;;
73729;SDS011;62036;48.128;16.458;2022-11-20T05:58:27;20.70;;;9.45;;
73729;SDS011;62036;48.128;16.458;2022-11-20T06:00:53;23.65;;;10.13;;
73729;SDS011;62036;48.128;16.458;2022-11-20T06:05:45;26.13;;;10.10;;
73729;SDS011;62036;48.128;16.458;2022-11-20T06:10:37;21.88;;;9.35;;
73729;SDS011;62036;48.128;16.458;2022-11-20T06:13:03;26.88;;;10.02;;
73729;SDS011;62036;48.128;16.458;2022-11-20T06:15:29;19.50;;;9.13;;
73729;SDS011;62036;48.128;16.458;2022-11-20T06:17:55;26.92;;;9.95;;
73729;SDS011;62036;48.128;16.458;2022-11-20T06:20:21;24.92;;;10.57;;
73729;SDS011;62036;48.128;16.458;2022-11-20T06:22:49;22.40;;;9.32;;
73729;SDS011;62036;48.128;16.458;2022-11-20T06:27:40;22.13;;;9.10;;
73729;SDS011;62036;48.128;16.458;2022-11-20T06:32:32;20.67;;;8.57;;
73729;SDS011;62036;48.128;16.458;2022-11-20T06:34:58;15.75;;;8.35;;
73729;SDS011;62036;48.128;16.458;2022-11-20T06:39:50;23.98;;;9.82;;
73729;SDS011;62036;48.128;16.458;2022-11-20T06:44:42;20.98;;;10.10;;
73729;SDS011;62036;48.128;16.458;2022-11-20T06:49:34;20.00;;;9.25;;
73729;SDS011;62036;48.128;16.458;2022-11-20T06:52:02;24.23;;;9.68;;
73729;SDS011;62036;48.128;16.458;2022-11-20T06:54:28;23.63;;;9.80;;
73729;SDS011;62036;48.128;16.458;2022-11-20T06:59:19;23.17;;;9.68;;
73729;SDS011;62036;48.128;16.458;2022-11-20T07:01:46;23.42;;;10.35;;
73729;SDS011;62036;48.128;16.458;2022-11-20T07:04:12;24.75;;;10.30;;
73729;SDS011;62036;48.128;16.458;2022-11-20T07:09:04;25.35;;;9.30;;
73729;SDS011;62036;48.128;16.458;2022-11-20T07:13:56;25.88;;;9.93;;
73729;SDS011;62036;48.128;16.458;2022-11-20T07:16:22;21.08;;;9.65;;
73729;SDS011;62036;48.128;16.458;2022-11-20T07:21:14;20.67;;;9.18;;
73729;SDS011;62036;48.128;16.458;2022-11-20T07:26:10;20.52;;;9.27;;
73729;SDS011;62036;48.128;16.458;2022-11-20T07:28:36;24.95;;;10.60;;
73729;SDS011;62036;48.128;16.458;2022-11-20T07:31:02;22.63;;;10.05;;
73729;SDS011;62036;48.128;16.458;2022-11-20T07:33:29;22.35;;;10.68;;
73729;SDS011;62036;48.128;16.458;2022-11-20T07:38:21;25.35;;;9.30;;
73729;SDS011;62036;48.128;16.458;2022-11-20T07:40:47;26.85;;;10.13;;
73729;SDS011;62036;48.128;16.458;2022-11-20T07:43:13;24.50;;;9.85;;
73729;SDS011;62036;48.128;16.458;2022-11-20T07:45:39;27.02;;;10.68;;
73729;SDS011;62036;48.128;16.458;2022-11-20T07:50:31;24.25;;;9.23;;
73729;SDS011;62036;48.128;16.458;2022-11-20T07:55:23;24.42;;;9.82;;
73729;SDS011;62036;48.128;16.458;2022-11-20T08:00:15;22.00;;;9.40;;
73729;SDS011;62036;48.128;16.458;2022-11-20T08:02:41;23.65;;;9.95;;
73729;SDS011;62036;48.128;16.458;2022-11-20T08:05:08;26.60;;;10.68;;
73729;SDS011;62036;48.128;16.458;2022-11-20T08:07:38;21.08;;;9.75;;
73729;SDS011;62036;48.128;16.458;2022-11-20T08:10:04;26.48;;;11.50;;
73729;SDS011;62036;48.128;16.458;2022-11-20T08:12:30;28.23;;;12.07;;
73729;SDS011;62036;48.128;16.458;2022-11-20T08:15:15;27.30;;;12.07;;
73729;SDS011;62036;48.128;16.458;2022-11-20T08:17:41;25.67;;;11.05;;
73729;SDS011;62036;48.128;16.458;2022-11-20T08:20:08;27.13;;;11.55;;
73729;SDS011;62036;48.128;16.458;2022-11-20T08:22:34;26.13;;;10.90;;
73729;SDS011;62036;48.128;16.458;2022-11-20T08:25:00;24.88;;;10.65;;
73729;SDS011;62036;48.128;16.458;2022-11-20T08:27:26;25.63;;;11.52;;
73729;SDS011;62036;48.128;16.458;2022-11-20T08:29:52;26.35;;;11.10;;
73729;SDS011;62036;48.128;16.458;2022-11-20T08:32:18;25.45;;;11.35;;
73729;SDS011;62036;48.128;16.458;2022-11-20T08:34:44;23.58;;;10.90;;
73729;SDS011;62036;48.128;16.458;2022-11-20T08:37:11;26.80;;;10.60;;
73729;SDS011;62036;48.128;16.458;2022-11-20T08:39:37;24.95;;;11.30;;
73729;SDS011;62036;48.128;16.458;2022-11-20T08:42:06;23.38;;;10.70;;
73729;SDS011;62036;48.128;16.458;2022-11-20T08:44:32;29.48;;;12.25;;
73729;SDS011;62036;48.128;16.458;2022-11-20T08:46:58;29.83;;;12.30;;
73729;SDS011;62036;48.128;16.458;2022-11-20T08:49:26;25.17;;;11.20;;
73729;SDS011;62036;48.128;16.458;2022-11-20T08:51:52;27.27;;;12.05;;
73729;SDS011;62036;48.128;16.458;2022-11-20T08:54:20;28.65;;;11.05;;
73729;SDS011;62036;48.128;16.458;2022-11-20T08:56:47;29.67;;;12.02;;
73729;SDS011;62036;48.128;16.458;2022-11-20T08:59:13;23.67;;;11.13;;
73729;SDS011;62036;48.128;16.458;2022-11-20T09:01:39;26.80;;;11.05;;
73729;SDS011;62036;48.128;16.458;2022-11-20T09:04:05;26.08;;;11.52;;
73729;SDS011;62036;48.128;16.458;2022-11-20T09:06:31;27.55;;;12.25;;
73729;SDS011;62036;48.128;16.458;2022-11-20T09:08:57;64.57;;;24.10;;
73729;SDS011;62036;48.128;16.458;2022-11-20T09:11:23;26.73;;;11.57;;
73729;SDS011;62036;48.128;16.458;2022-11-20T09:13:50;30.13;;;11.85;;
73729;SDS011;62036;48.128;16.458;2022-11-20T09:16:16;30.10;;;12.23;;
73729;SDS011;62036;48.128;16.458;2022-11-20T09:18:42;27.88;;;11.82;;
73729;SDS011;62036;48.128;16.458;2022-11-20T09:21:11;31.23;;;13.23;;
73729;SDS011;62036;48.128;16.458;2022-11-20T09:23:38;30.10;;;12.43;;
73729;SDS011;62036;48.128;16.458;2022-11-20T09:26:04;34.55;;;13.52;;
73729;SDS011;62036;48.128;16.458;2022-11-20T09:28:31;33.33;;;12.63;;
73729;SDS011;62036;48.128;16.458;2022-11-20T09:30:57;26.75;;;12.18;;
73729;SDS011;62036;48.128;16.458;2022-11-20T09:33:23;33.83;;;13.80;;
73729;SDS011;62036;48.128;16.458;2022-11-20T09:35:49;25.67;;;11.30;;
73729;SDS011;62036;48.128;16.458;2022-11-20T09:38:15;29.20;;;12.30;;
73729;SDS011;62036;48.128;16.458;2022-11-20T09:46:07;24.35;;;11.60;;
73729;SDS011;62036;48.128;16.458;2022-11-20T09:53:56;28.77;;;12.30;;
73729;SDS011;62036;48.128;16.458;2022-11-20T09:56:23;27.75;;;11.75;;
73729;SDS011;62036;48.128;16.458;2022-11-20T09:58:51;28.83;;;12.07;;
73729;SDS011;62036;48.128;16.458;2022-11-20T10:01:18;31.40;;;14.07;;
73729;SDS011;62036;48.128;16.458;2022-11-20T10:06:21;31.20;;;12.82;;
73729;SDS011;62036;48.128;16.458;2022-11-20T10:11:35;28.80;;;11.63;;
73729;SDS011;62036;48.128;16.458;2022-11-20T10:16:52;32.38;;;13.25;;
73729;SDS011;62036;48.128;16.458;2022-11-20T10:24:41;27.95;;;11.40;;
73729;SDS011;62036;48.128;16.458;2022-11-20T10:30:06;46.75;;;21.33;;
73729;SDS011;62036;48.128;16.458;2022-11-20T10:32:43;37.22;;;15.65;;
73729;SDS011;62036;48.128;16.458;2022-11-20T10:35:22;28.33;;;13.07;;
73729;SDS011;62036;48.128;16.458;2022-11-20T10:37:51;28.55;;;12.15;;
73729;SDS011;62036;48.128;16.458;2022-11-20T10:40:20;27.88;;;11.57;;
73729;SDS011;62036;48.128;16.458;2022-11-20T10:42:59;29.00;;;13.30;;
73729;SDS011;62036;48.128;16.458;2022-11-20T10:47:56;26.70;;;12.20;;
73729;SDS011;62036;48.128;16.458;2022-11-20T10:50:24;24.75;;;11.85;;
73729;SDS011;62036;48.128;16.458;2022-11-20T10:53:10;26.30;;;11.48;;
73729;SDS011;62036;48.128;16.458;2022-11-20T11:03:22;24.08;;;10.25;;
73729;SDS011;62036;48.128;16.458;2022-11-20T11:05:58;25.63;;;11.43;;
73729;SDS011;62036;48.128;16.458;2022-11-20T11:08:26;23.45;;;10.40;;
73729;SDS011;62036;48.128;16.458;2022-11-20T11:10:57;25.90;;;10.75;;
73729;SDS011;62036;48.128;16.458;2022-11-20T11:13:25;30.15;;;12.65;;
73729;SDS011;62036;48.128;16.458;2022-11-20T11:15:52;29.00;;;12.18;;
73729;SDS011;62036;48.128;16.458;2022-11-20T11:18:39;25.85;;;11.23;;
73729;SDS011;62036;48.128;16.458;2022-11-20T11:21:05;27.48;;;11.85;;
73729;SDS011;62036;48.128;16.458;2022-11-20T11:23:41;36.83;;;16.15;;
73729;SDS011;62036;48.128;16.458;2022-11-20T11:26:23;28.52;;;13.23;;
73729;SDS011;62036;48.128;16.458;2022-11-20T11:29:00;31.17;;;13.18;;
73729;SDS011;62036;48.128;16.458;2022-11-20T11:31:30;28.85;;;12.05;;
73729;SDS011;62036;48.128;16.458;2022-11-20T11:34:12;27.85;;;12.18;;
73729;SDS011;62036;48.128;16.458;2022-11-20T11:36:39;33.30;;;13.65;;
73729;SDS011;62036;48.128;16.458;2022-11-20T11:39:05;41.45;;;16.80;;
73729;SDS011;62036;48.128;16.458;2022-11-20T11:41:32;27.00;;;13.25;;
73729;SDS011;62036;48.128;16.458;2022-11-20T11:47:11;30.98;;;12.77;;
73729;SDS011;62036;48.128;16.458;2022-11-20T11:49:41;39.83;;;15.93;;
73729;SDS011;62036;48.128;16.458;2022-11-20T11:54:45;30.15;;;12.57;;
73729;SDS011;62036;48.128;16.458;2022-11-20T11:57:16;26.80;;;12.52;;
73729;SDS011;62036;48.128;16.458;2022-11-20T12:02:22;25.48;;;11.63;;
73729;SDS011;62036;48.128;16.458;2022-11-20T12:04:55;25.45;;;12.27;;
73729;SDS011;62036;48.128;16.458;2022-11-20T12:09:52;27.17;;;12.77;;
73729;SDS011;62036;48.128;16.458;2022-11-20T12:12:21;31.73;;;13.90;;
73729;SDS011;62036;48.128;16.458;2022-11-20T12:14:48;25.92;;;12.27;;
73729;SDS011;62036;48.128;16.458;2022-11-20T12:17:16;34.13;;;14.43;;
73729;SDS011;62036;48.128;16.458;2022-11-20T12:19:43;26.90;;;13.88;;
73729;SDS011;62036;48.128;16.458;2022-11-20T12:24:59;29.83;;;13.30;;
73729;SDS011;62036;48.128;16.458;2022-11-20T12:37:48;26.50;;;12.27;;
73729;SDS011;62036;48.128;16.458;2022-11-20T12:40:22;26.60;;;12.43;;
73729;SDS011;62036;48.128;16.458;2022-11-20T12:43:05;28.13;;;12.38;;
73729;SDS011;62036;48.128;16.458;2022-11-20T12:48:40;27.25;;;11.98;;
73729;SDS011;62036;48.128;16.458;2022-11-20T12:51:27;29.25;;;13.18;;
73729;SDS011;62036;48.128;16.458;2022-11-20T12:59:16;25.63;;;11.63;;
73729;SDS011;62036;48.128;16.458;2022-11-20T13:01:51;26.90;;;11.85;;
73729;SDS011;62036;48.128;16.458;2022-11-20T13:06:47;27.30;;;12.00;;
73729;SDS011;62036;48.128;16.458;2022-11-20T13:09:15;26.25;;;11.13;;
73729;SDS011;62036;48.128;16.458;2022-11-20T13:19:09;26.55;;;11.98;;
73729;SDS011;62036;48.128;16.458;2022-11-20T13:21:41;28.10;;;11.32;;
73729;SDS011;62036;48.128;16.458;2022-11-20T13:24:19;25.45;;;12.40;;
73729;SDS011;62036;48.128;16.458;2022-11-20T13:32:16;23.75;;;10.13;;
73729;SDS011;62036;48.128;16.458;2022-11-20T13:37:58;29.75;;;12.68;;
73729;SDS011;62036;48.128;16.458;2022-11-20T13:40:12;24.33;;;12.05;;
73729;SDS011;62036;48.128;16.458;2022-11-20T13:45:29;28.77;;;12.52;;
73729;SDS011;62036;48.128;16.458;2022-11-20T13:47:58;34.97;;;15.20;;
73729;SDS011;62036;48.128;16.458;2022-11-20T13:50:40;27.52;;;12.73;;
73729;SDS011;62036;48.128;16.458;2022-11-20T13:56:01;27.48;;;11.75;;
73729;SDS011;62036;48.128;16.458;2022-11-20T14:01:21;26.13;;;11.27;;
73729;SDS011;62036;48.128;16.458;2022-11-20T14:03:48;25.00;;;11.45;;
73729;SDS011;62036;48.128;16.458;2022-11-20T14:06:18;25.00;;;11.77;;
73729;SDS011;62036;48.128;16.458;2022-11-20T14:08:48;24.48;;;11.48;;
73729;SDS011;62036;48.128;16.458;2022-11-20T14:13:54;26.63;;;11.85;;
73729;SDS011;62036;48.128;16.458;2022-11-20T14:16:21;30.83;;;14.85;;
73729;SDS011;62036;48.128;16.458;2022-11-20T14:18:48;24.45;;;12.43;;
73729;SDS011;62036;48.128;16.458;2022-11-20T14:21:26;24.58;;;11.13;;
73729;SDS011;62036;48.128;16.458;2022-11-20T14:23:54;27.00;;;11.65;;
73729;SDS011;62036;48.128;16.458;2022-11-20T14:26:20;26.38;;;12.00;;
73729;SDS011;62036;48.128;16.458;2022-11-20T14:28:49;24.65;;;11.30;;
73729;SDS011;62036;48.128;16.458;2022-11-20T14:31:22;24.92;;;12.05;;
73729;SDS011;62036;48.128;16.458;2022-11-20T14:33:48;28.35;;;12.60;;
73729;SDS011;62036;48.128;16.458;2022-11-20T14:36:18;25.65;;;12.77;;
73729;SDS011;62036;48.128;16.458;2022-11-20T14:38:45;25.80;;;11.27;;
73729;SDS011;62036;48.128;16.458;2022-11-20T14:41:22;25.60;;;12.00;;
73729;SDS011;62036;48.128;16.458;2022-11-20T14:43:56;29.15;;;12.02;;
73729;SDS011;62036;48.128;16.458;2022-11-20T14:46:23;28.75;;;12.93;;
73729;SDS011;62036;48.128;16.458;2022-11-20T14:48:50;26.60;;;11.65;;
73729;SDS011;62036;48.128;16.458;2022-11-20T14:51:23;27.52;;;13.45;;
73729;SDS011;62036;48.128;16.458;2022-11-20T14:53:51;28.38;;;13.15;;
73729;SDS011;62036;48.128;16.458;2022-11-20T14:56:21;26.35;;;11.32;;
73729;SDS011;62036;48.128;16.458;2022-11-20T14:58:54;26.05;;;11.95;;
73729;SDS011;62036;48.128;16.458;2022-11-20T15:01:25;22.45;;;10.80;;
73729;SDS011;62036;48.128;16.458;2022-11-20T15:04:01;27.23;;;11.93;;
73729;SDS011;62036;48.128;16.458;2022-11-20T15:06:30;27.70;;;12.70;;
73729;SDS011;62036;48.128;16.458;2022-11-20T15:08:56;27.45;;;12.27;;
73729;SDS011;62036;48.128;16.458;2022-11-20T15:11:25;27.63;;;13.68;;
73729;SDS011;62036;48.128;16.458;2022-11-20T15:13:53;32.22;;;14.55;;
73729;SDS011;62036;48.128;16.458;2022-11-20T15:16:20;28.27;;;14.15;;
73729;SDS011;62036;48.128;16.458;2022-11-20T15:18:46;32.13;;;13.65;;
73729;SDS011;62036;48.128;16.458;2022-11-20T15:21:13;32.60;;;14.70;;
73729;SDS011;62036;48.128;16.458;2022-11-20T15:23:40;25.45;;;13.45;;
73729;SDS011;62036;48.128;16.458;2022-11-20T15:26:06;25.95;;;13.73;;
73729;SDS011;62036;48.128;16.458;2022-11-20T15:28:34;24.08;;;11.95;;
73729;SDS011;62036;48.128;16.458;2022-11-20T15:31:02;22.98;;;11.38;;
73729;SDS011;62036;48.128;16.458;2022-11-20T15:33:28;24.48;;;11.38;;
73729;SDS011;62036;48.128;16.458;2022-11-20T15:35:54;24.27;;;11.95;;
73729;SDS011;62036;48.128;16.458;2022-11-20T15:38:20;26.90;;;11.57;;
73729;SDS011;62036;48.128;16.458;2022-11-20T15:40:46;24.17;;;11.30;;
73729;SDS011;62036;48.128;16.458;2022-11-20T15:43:13;27.95;;;12.85;;
73729;SDS011;62036;48.128;16.458;2022-11-20T15:45:45;24.20;;;12.55;;
73729;SDS011;62036;48.128;16.458;2022-11-20T15:48:13;28.63;;;13.63;;
73729;SDS011;62036;48.128;16.458;2022-11-20T15:50:46;29.33;;;12.75;;
73729;SDS011;62036;48.128;16.458;2022-11-20T15:53:14;28.15;;;12.40;;
73729;SDS011;62036;48.128;16.458;2022-11-20T15:55:40;28.50;;;12.20;;
73729;SDS011;62036;48.128;16.458;2022-11-20T15:58:06;29.08;;;12.77;;
73729;SDS011;62036;48.128;16.458;2022-11-20T16:00:32;28.25;;;13.63;;
73729;SDS011;62036;48.128;16.458;2022-11-20T16:02:58;30.98;;;12.77;;
73729;SDS011;62036;48.128;16.458;2022-11-20T16:05:27;30.58;;;13.93;;
73729;SDS011;62036;48.128;16.458;2022-11-20T16:07:53;35.45;;;16.75;;
73729;SDS011;62036;48.128;16.458;2022-11-20T16:10:19;33.92;;;16.52;;
73729;SDS011;62036;48.128;16.458;2022-11-20T16:12:45;39.08;;;16.60;;
73729;SDS011;62036;48.128;16.458;2022-11-20T16:15:30;38.78;;;18.45;;
73729;SDS011;62036;48.128;16.458;2022-11-20T16:18:13;34.25;;;15.80;;
73729;SDS011;62036;48.128;16.458;2022-11-20T16:20:39;30.05;;;13.77;;
73729;SDS011;62036;48.128;16.458;2022-11-20T16:23:05;28.23;;;13.50;;
73729;SDS011;62036;48.128;16.458;2022-11-20T16:25:31;33.05;;;13.00;;
73729;SDS011;62036;48.128;16.458;2022-11-20T16:27:58;28.25;;;13.40;;
73729;SDS011;62036;48.128;16.458;2022-11-20T16:30:24;34.63;;;16.23;;
73729;SDS011;62036;48.128;16.458;2022-11-20T16:32:50;36.13;;;15.75;;
73729;SDS011;62036;48.128;16.458;2022-11-20T16:35:16;42.22;;;18.75;;
73729;SDS011;62036;48.128;16.458;2022-11-20T16:37:42;40.80;;;18.08;;
73729;SDS011;62036;48.128;16.458;2022-11-20T16:40:08;39.03;;;18.90;;
73729;SDS011;62036;48.128;16.458;2022-11-20T16:42:35;40.10;;;18.60;;
73729;SDS011;62036;48.128;16.458;2022-11-20T16:45:01;37.70;;;17.98;;
73729;SDS011;62036;48.128;16.458;2022-11-20T16:47:28;38.38;;;17.85;;
73729;SDS011;62036;48.128;16.458;2022-11-20T16:49:54;38.05;;;18.48;;
73729;SDS011;62036;48.128;16.458;2022-11-20T16:52:20;36.33;;;17.42;;
73729;SDS011;62036;48.128;16.458;2022-11-20T16:54:46;44.72;;;18.20;;
73729;SDS011;62036;48.128;16.458;2022-11-20T16:57:12;41.17;;;18.17;;
73729;SDS011;62036;48.128;16.458;2022-11-20T16:59:38;41.17;;;18.23;;
73729;SDS011;62036;48.128;16.458;2022-11-20T17:02:04;40.92;;;18.85;;
73729;SDS011;62036;48.128;16.458;2022-11-20T17:04:30;41.67;;;18.75;;
73729;SDS011;62036;48.128;16.458;2022-11-20T17:06:56;37.95;;;17.50;;
73729;SDS011;62036;48.128;16.458;2022-11-20T17:09:22;39.97;;;17.38;;
73729;SDS011;62036;48.128;16.458;2022-11-20T17:11:48;38.28;;;17.30;;
73729;SDS011;62036;48.128;16.458;2022-11-20T17:14:14;36.03;;;17.02;;
73729;SDS011;62036;48.128;16.458;2022-11-20T17:16:40;32.83;;;14.43;;
73729;SDS011;62036;48.128;16.458;2022-11-20T17:19:07;35.47;;;16.45;;
73729;SDS011;62036;48.128;16.458;2022-11-20T17:21:33;38.28;;;15.85;;
73729;SDS011;62036;48.128;16.458;2022-11-20T17:24:00;31.75;;;15.52;;
73729;SDS011;62036;48.128;16.458;2022-11-20T17:26:27;31.55;;;16.38;;